Time;durP1;ratioP1;P1;durP2;ratioP2;P2;SDS_P1;SDS_P2;PMS_P1;PMS_P2;Temp;Humidity;BMP_temperature;BMP_pressure;BME280_temperature;BME280_humidity;BME280_pressure;Samples;Min_cycle;Max_cycle;Signal;HPM_P1;HPM_P2
2023/11/06 00:01:14;;;;;;;4.80;2.70;;;;;;;11.50;100.00;97950.64;108872;1277;21986;-79
2023/11/06 00:04:04;;;;;;;6.90;2.60;;;;;;;11.49;100.00;97954.20;108835;1277;23098;-79
2023/11/06 00:07:15;;;;;;;4.00;2.70;;;;;;;11.51;100.00;97960.52;108988;1278;23644;-78
2023/11/06 00:10:42;;;;;;;4.20;2.40;;;;;;;11.52;100.00;97968.80;108633;1278;22081;-79
2023/11/06 00:17:53;;;;;;;3.00;1.70;;;;;;;11.56;100.00;97978.10;108403;1288;22004;-80
2023/11/06 00:21:23;;;;;;;4.60;2.50;;;;;;;11.60;100.00;97983.52;108417;1282;21992;-77
2023/11/06 00:24:48;;;;;;;4.50;2.40;;;;;;;11.63;100.00;97989.52;108768;1282;21995;-79
2023/11/06 00:28:23;;;;;;;4.20;2.20;;;;;;;11.67;100.00;97994.77;108403;1288;22423;-79
2023/11/06 00:32:02;;;;;;;3.10;2.00;;;;;;;11.70;100.00;98003.21;108360;1278;23213;-80
2023/11/06 00:34:23;;;;;;;;;;;;;;;11.74;100.00;98007.10;108350;1288;21976;-80
2023/11/06 00:37:38;;;;;;;2.50;1.70;;;;;;;11.68;100.00;98013.45;108375;1288;22000;-81
2023/11/06 00:40:34;;;;;;;2.80;1.90;;;;;;;11.74;100.00;98015.67;108259;1286;23725;-80
2023/11/06 00:43:45;;;;;;;2.70;1.70;;;;;;;11.80;100.00;98018.34;108265;1282;22069;-83
2023/11/06 00:46:47;;;;;;;3.60;1.60;;;;;;;11.83;100.00;98023.14;108504;1278;22022;-79
2023/11/06 00:49:38;;;;;;;4.90;1.50;;;;;;;11.86;100.00;98027.96;109572;1271;22017;-80
2023/11/06 00:53:39;;;;;;;3.90;1.30;;;;;;;11.86;100.00;98031.92;109329;1271;23796;-79
2023/11/06 00:56:25;;;;;;;1.80;1.20;;;;;;;11.85;100.00;98038.59;109358;1271;23631;-79
2023/11/06 00:59:30;;;;;;;2.80;1.40;;;;;;;11.88;100.00;98044.36;109411;1271;22113;-79
2023/11/06 01:02:28;;;;;;;2.50;1.40;;;;;;;11.88;100.00;98051.62;109609;1271;22029;-80
2023/11/06 01:05:18;;;;;;;3.10;1.70;;;;;;;11.87;100.00;98053.13;109238;1271;22359;-79
2023/11/06 01:08:05;;;;;;;3.00;1.60;;;;;;;11.87;100.00;98056.38;109183;1271;24040;-79
2023/11/06 01:10:47;;;;;;;1.70;1.00;;;;;;;11.88;100.00;98060.16;109337;1271;24651;-79
2023/11/06 01:13:45;;;;;;;1.70;1.00;;;;;;;11.89;100.00;98064.13;108855;1276;23670;-79
2023/11/06 01:16:38;;;;;;;8.90;1.60;;;;;;;11.88;100.00;98069.07;108966;1274;22002;-79
2023/11/06 01:19:36;;;;;;;1.80;0.90;;;;;;;11.86;100.00;98071.81;108857;1276;24454;-78
2023/11/06 01:22:35;;;;;;;1.40;0.90;;;;;;;11.85;100.00;98075.60;108578;1276;22784;-78
2023/11/06 01:25:26;;;;;;;2.60;1.10;;;;;;;11.82;100.00;98078.93;108456;1282;22383;-81
2023/11/06 01:28:18;;;;;;;1.30;0.70;;;;;;;11.85;100.00;98090.20;108539;1282;22002;-78
2023/11/06 01:31:04;;;;;;;2.50;1.00;;;;;;;11.85;100.00;98098.05;108602;1277;23608;-79
2023/11/06 01:33:53;;;;;;;1.20;0.90;;;;;;;11.86;100.00;98100.98;108629;1281;23174;-78
2023/11/06 01:37:05;;;;;;;1.50;1.00;;;;;;;11.84;100.00;98112.63;108478;1284;22931;-78
2023/11/06 01:39:58;;;;;;;4.00;1.00;;;;;;;11.82;100.00;98122.02;108323;1280;21989;-77
2023/11/06 01:43:23;;;;;;;3.00;0.80;;;;;;;11.81;100.00;98122.77;108731;1276;22018;-80
2023/11/06 01:46:08;;;;;;;1.70;1.10;;;;;;;11.78;100.00;98130.66;108873;1276;23031;-78
2023/11/06 01:49:09;;;;;;;1.30;1.00;;;;;;;11.75;100.00;98138.41;109137;1276;22368;-79
2023/11/06 01:51:53;;;;;;;1.60;0.90;;;;;;;11.71;100.00;98144.25;109029;1275;22004;-78
2023/11/06 01:54:41;;;;;;;2.30;1.00;;;;;;;11.70;100.00;98149.38;109165;1272;22140;-79
2023/11/06 01:57:49;;;;;;;3.40;1.10;;;;;;;11.68;100.00;98157.54;109401;1271;22501;-79
2023/11/06 02:00:39;;;;;;;3.80;0.90;;;;;;;11.68;100.00;98160.34;109561;1272;21968;-79
2023/11/06 02:03:33;;;;;;;1.90;1.00;;;;;;;11.70;100.00;98170.46;109386;1271;22007;-81
2023/11/06 02:06:27;;;;;;;1.30;0.90;;;;;;;11.72;100.00;98169.84;108886;1276;23626;-78
2023/11/06 02:09:29;;;;;;;4.20;1.30;;;;;;;11.70;100.00;98173.23;108934;1271;24629;-78
2023/11/06 02:12:43;;;;;;;4.00;1.00;;;;;;;11.68;100.00;98174.98;108827;1277;22962;-79
2023/11/06 02:15:45;;;;;;;4.10;1.10;;;;;;;11.67;100.00;98180.63;108867;1278;22008;-79
2023/11/06 02:18:40;;;;;;;4.50;1.30;;;;;;;11.68;100.00;98188.27;108418;1283;22008;-80
2023/11/06 02:21:36;;;;;;;2.90;1.40;;;;;;;11.72;100.00;98192.44;108611;1285;22017;-79
2023/11/06 02:24:48;;;;;;;1.90;0.90;;;;;;;11.72;100.00;98198.36;108197;1287;23016;-83
2023/11/06 02:27:54;;;;;;;1.60;0.90;;;;;;;11.76;100.00;98207.52;108478;1286;22181;-78
2023/11/06 02:30:41;;;;;;;1.30;0.90;;;;;;;11.78;100.00;98215.67;108316;1286;22010;-78
2023/11/06 02:33:44;;;;;;;3.70;1.40;;;;;;;11.80;100.00;98227.45;108243;1286;22019;-79
2023/11/06 02:36:40;;;;;;;1.60;0.90;;;;;;;11.78;100.00;98235.20;108089;1286;23829;-79
2023/11/06 02:39:54;;;;;;;5.80;1.40;;;;;;;11.79;100.00;98238.67;108370;1286;22009;-78
2023/11/06 02:42:52;;;;;;;8.20;1.60;;;;;;;11.77;100.00;98245.08;108350;1286;22002;-79
2023/11/06 02:45:40;;;;;;;2.20;1.10;;;;;;;11.76;100.00;98256.28;108264;1285;23768;-79
2023/11/06 02:48:29;;;;;;;2.60;1.00;;;;;;;11.76;100.00;98261.13;108401;1275;22267;-79
2023/11/06 02:51:35;;;;;;;5.50;1.40;;;;;;;11.72;100.00;98265.45;109545;1269;23025;-77
2023/11/06 02:54:27;;;;;;;3.30;1.50;;;;;;;11.72;100.00;98273.46;109689;1265;21993;-77
2023/11/06 02:56:59;;;;;;;2.40;1.10;;;;;;;11.72;100.00;98270.85;109282;1258;23756;-78
2023/11/06 02:59:58;;;;;;;2.80;1.40;;;;;;;11.74;100.00;98273.87;109190;1265;23628;-79
2023/11/06 03:02:49;;;;;;;3.00;1.30;;;;;;;11.73;100.00;98284.38;109273;1271;22010;-78
2023/11/06 03:06:15;;;;;;;9.00;1.80;;;;;;;11.70;100.00;98289.14;109372;1271;21981;-79
2023/11/06 03:08:58;;;;;;;2.40;1.20;;;;;;;11.68;100.00;98295.38;109301;1271;22035;-79
2023/11/06 03:11:42;;;;;;;5.20;1.70;;;;;;;11.70;100.00;98306.59;109609;1271;22039;-79
2023/11/06 03:14:15;;;;;;;2.50;1.40;;;;;;;11.69;100.00;98308.73;109210;1266;23853;-79
2023/11/06 03:16:47;;;;;;;;;;;;;;;11.70;100.00;98316.17;109946;1265;23633;-81
2023/11/06 03:19:25;;;;;;;3.70;1.20;;;;;;;11.62;100.00;98328.72;110177;1265;21996;-78
2023/11/06 03:22:35;;;;;;;3.40;1.30;;;;;;;11.64;100.00;98326.55;109760;1265;21972;-80
2023/11/06 03:25:32;;;;;;;4.30;1.10;;;;;;;11.66;100.00;98333.55;109999;1265;22021;-79
2023/11/06 03:28:36;;;;;;;3.70;1.30;;;;;;;11.66;100.00;98338.89;109975;1265;21979;-79
2023/11/06 03:31:33;;;;;;;3.30;1.50;;;;;;;11.65;100.00;98341.63;109269;1270;22228;-78
2023/11/06 03:34:31;;;;;;;3.20;1.20;;;;;;;11.62;100.00;98347.59;109474;1270;22259;-78
2023/11/06 03:37:17;;;;;;;8.90;1.90;;;;;;;11.62;100.00;98353.70;109524;1270;21983;-78
2023/11/06 03:39:51;;;;;;;4.10;2.00;;;;;;;11.61;100.00;98354.61;109615;1270;22050;-78
2023/11/06 03:42:33;;;;;;;2.90;1.40;;;;;;;11.50;100.00;98340.14;109556;1271;22007;-78
2023/11/06 03:45:14;;;;;;;4.40;1.70;;;;;;;11.58;100.00;98359.89;109670;1270;23738;-79
2023/11/06 03:47:57;;;;;;;4.30;1.80;;;;;;;11.58;100.00;98361.63;108797;1273;22083;-78
2023/11/06 03:50:42;;;;;;;2.80;1.30;;;;;;;11.59;100.00;98363.33;109235;1273;21991;-78
2023/11/06 03:53:41;;;;;;;4.30;1.60;;;;;;;11.58;100.00;98368.77;108858;1279;23637;-80
2023/11/06 03:56:21;;;;;;;3.20;1.50;;;;;;;11.56;100.00;98373.59;109126;1279;23671;-79
2023/11/06 03:58:57;;;;;;;4.90;1.60;;;;;;;11.56;100.00;98372.19;108569;1283;22033;-78
2023/11/06 04:01:41;;;;;;;4.30;1.40;;;;;;;11.55;100.00;98377.36;108336;1286;22022;-78
2023/11/06 04:04:25;;;;;;;4.80;1.20;;;;;;;11.52;100.00;98381.41;108425;1286;22006;-78
2023/11/06 04:07:02;;;;;;;2.80;1.60;;;;;;;11.50;100.00;98385.70;108418;1283;22473;-79
2023/11/06 04:09:52;;;;;;;6.60;1.70;;;;;;;11.50;100.00;98387.12;108238;1286;22076;-78
2023/11/06 04:12:29;;;;;;;;;;;;;;;11.49;100.00;98390.64;108132;1286;22000;-78
2023/11/06 04:15:13;;;;;;;3.30;1.30;;;;;;;11.39;100.00;98394.18;108446;1286;22101;-78
2023/11/06 04:17:51;;;;;;;3.40;1.30;;;;;;;11.40;100.00;98399.38;108530;1276;23739;-78
2023/11/06 04:20:41;;;;;;;1.80;0.90;;;;;;;11.42;100.00;98403.91;108728;1276;22008;-79
2023/11/06 04:23:24;;;;;;;4.90;1.60;;;;;;;11.42;100.00;98405.11;108837;1276;21985;-78
2023/11/06 04:26:09;;;;;;;3.10;1.30;;;;;;;11.42;100.00;98410.52;108947;1276;24398;-78
2023/11/06 04:28:59;;;;;;;;;;;;;;;11.43;100.00;98419.54;108574;1273;23052;-78
2023/11/06 04:31:53;;;;;;;4.50;1.80;;;;;;;11.31;100.00;98419.80;108773;1277;22985;-79
2023/11/06 04:34:37;;;;;;;4.20;2.40;;;;;;;11.31;100.00;98422.81;108929;1277;21996;-78
2023/11/06 04:37:12;;;;;;;2.90;1.30;;;;;;;11.34;100.00;98423.13;108478;1282;22339;-79
2023/11/06 04:39:43;;;;;;;3.00;1.30;;;;;;;11.37;100.00;98428.16;108636;1280;21983;-78
2023/11/06 04:42:16;;;;;;;4.20;1.20;;;;;;;11.39;100.00;98428.33;108763;1280;21956;-79
2023/11/06 04:44:50;;;;;;;5.80;1.10;;;;;;;11.42;100.00;98435.09;108585;1282;22062;-79
2023/11/06 04:47:27;;;;;;;3.70;1.60;;;;;;;11.42;100.00;98439.08;108561;1278;21992;-79
2023/11/06 04:50:07;;;;;;;2.80;1.20;;;;;;;11.41;100.00;98444.70;108802;1278;23843;-78
2023/11/06 04:52:38;;;;;;;4.10;1.30;;;;;;;11.36;100.00;98448.56;108779;1278;22003;-78
2023/11/06 04:55:21;;;;;;;;;;;;;;;;;;;;;
2023/11/06 04:57:53;;;;;;;3.70;1.50;;;;;;;11.34;100.00;98457.62;109380;1265;22742;-78
2023/11/06 05:00:25;;;;;;;2.10;0.90;;;;;;;11.32;100.00;98463.98;109305;1269;21972;-77
2023/11/06 05:03:04;;;;;;;1.30;0.90;;;;;;;11.33;100.00;98466.86;109181;1272;21997;-77
2023/11/06 05:05:57;;;;;;;;;;;;;;;11.34;100.00;98476.70;109327;1272;22159;-77
2023/11/06 05:08:37;;;;;;;4.70;1.50;;;;;;;11.25;100.00;98481.54;109092;1268;23037;-77
2023/11/06 05:11:18;;;;;;;3.40;1.20;;;;;;;11.23;100.00;98482.05;109303;1272;24142;-79
2023/11/06 05:14:14;;;;;;;2.80;1.30;;;;;;;11.22;100.00;98481.41;109209;1272;23063;-79
2023/11/06 05:16:52;;;;;;;9.90;1.80;;;;;;;11.22;100.00;98487.69;109176;1272;22012;-79
2023/11/06 05:19:23;;;;;;;4.60;1.60;;;;;;;11.21;100.00;98497.00;109303;1272;21983;-77
2023/11/06 05:21:57;;;;;;;4.40;1.60;;;;;;;11.22;100.00;98501.77;109855;1265;22186;-78
2023/11/06 05:24:30;;;;;;;2.30;1.10;;;;;;;11.23;100.00;98505.38;107343;1265;3402443;-77
2023/11/06 05:27:07;;;;;;;3.10;1.70;;;;;;;11.25;100.00;98507.67;110049;1266;23560;-79
2023/11/06 05:29:45;;;;;;;3.30;1.80;;;;;;;11.27;100.00;98515.39;110066;1265;23027;-77
2023/11/06 05:32:28;;;;;;;5.20;2.10;;;;;;;11.27;100.00;98520.10;109769;1265;23643;-76
2023/11/06 05:35:19;;;;;;;4.60;1.90;;;;;;;11.25;100.00;98527.16;110116;1265;21981;-78
2023/11/06 05:37:54;;;;;;;4.90;2.80;;;;;;;11.24;100.00;98530.73;109921;1265;23050;-79
2023/11/06 05:40:26;;;;;;;4.20;2.00;;;;;;;11.22;100.00;98538.51;110070;1265;25042;-79
2023/11/06 05:43:11;;;;;;;4.80;1.80;;;;;;;11.21;100.00;98546.40;109697;1265;21985;-77
2023/11/06 05:45:41;;;;;;;5.10;1.50;;;;;;;11.21;100.00;98546.06;109401;1270;23706;-78
2023/11/06 05:48:10;;;;;;;4.80;2.70;;;;;;;11.22;100.00;98552.63;109379;1266;22013;-78
2023/11/06 05:50:43;;;;;;;3.50;1.60;;;;;;;11.11;100.00;98538.08;109026;1273;22000;-77
2023/11/06 05:53:17;;;;;;;5.40;2.00;;;;;;;11.22;100.00;98561.86;109301;1273;23039;-77
2023/11/06 05:55:58;;;;;;;4.30;2.10;;;;;;;11.23;100.00;98565.45;109264;1273;22027;-78
2023/11/06 05:58:42;;;;;;;4.30;2.30;;;;;;;11.21;100.00;98569.23;109313;1273;21983;-79
2023/11/06 06:01:16;;;;;;;4.20;1.70;;;;;;;11.14;100.00;98561.58;109042;1273;21984;-79
2023/11/06 06:03:53;;;;;;;3.50;1.90;;;;;;;11.19;100.00;98577.09;109426;1270;22439;-79
2023/11/06 06:06:56;;;;;;;;;;;;;;;;;;;;;
2023/11/06 06:09:32;;;;;;;4.60;1.80;;;;;;;11.17;100.00;98586.75;108516;1281;22759;-77
2023/11/06 06:12:14;;;;;;;2.80;1.50;;;;;;;11.19;100.00;98589.58;108543;1278;21999;-79
2023/11/06 06:15:03;;;;;;;5.20;2.00;;;;;;;11.22;100.00;98597.73;108760;1278;23609;-79
2023/11/06 06:18:01;;;;;;;4.10;1.60;;;;;;;11.24;100.00;98605.05;108841;1278;21996;-78
2023/11/06 06:20:34;;;;;;;4.50;1.20;;;;;;;11.24;100.00;98609.40;108742;1279;22164;-77
2023/11/06 06:23:08;;;;;;;3.00;1.60;;;;;;;11.25;100.00;98618.23;108097;1286;22020;-78
2023/11/06 06:25:50;;;;;;;5.10;1.70;;;;;;;11.24;100.00;98621.94;108356;1283;22004;-79
2023/11/06 06:28:29;;;;;;;2.00;1.30;;;;;;;11.21;100.00;98631.90;108398;1283;23737;-77
2023/11/06 06:31:06;;;;;;;5.20;1.90;;;;;;;11.19;100.00;98632.59;108071;1287;22018;-79
2023/11/06 06:33:51;;;;;;;5.80;2.10;;;;;;;11.18;100.00;98637.05;108079;1287;22559;-79
2023/11/06 06:36:34;;;;;;;2.70;1.60;;;;;;;11.16;100.00;98639.73;107847;1292;22062;-79
2023/11/06 06:40:06;;;;;;;3.40;1.80;;;;;;;11.15;100.00;98650.25;107768;1294;22760;-79
2023/11/06 06:42:41;;;;;;;4.60;2.00;;;;;;;11.16;100.00;98655.24;108213;1287;22045;-78
2023/11/06 06:45:26;;;;;;;8.00;1.80;;;;;;;11.17;100.00;98661.95;108535;1279;21968;-77
2023/11/06 06:48:22;;;;;;;7.90;1.80;;;;;;;11.20;100.00;98671.84;108959;1276;21991;-76
2023/11/06 06:50:55;;;;;;;4.50;1.50;;;;;;;11.19;100.00;98677.48;109000;1275;22216;-79
2023/11/06 06:53:24;;;;;;;5.30;1.70;;;;;;;11.21;100.00;98685.19;109111;1274;22012;-78
2023/11/06 06:56:05;;;;;;;;;;;;;;;11.23;100.00;98691.17;109418;1269;23577;-77
2023/11/06 06:58:58;;;;;;;4.20;1.40;;;;;;;11.15;100.00;98693.11;110015;1265;21973;-77
2023/11/06 07:01:56;;;;;;;9.30;2.30;;;;;;;11.19;100.00;98696.98;110487;1265;23643;-77
2023/11/06 07:04:49;;;;;;;34.00;3.00;;;;;;;11.26;100.00;98705.41;110089;1265;21988;-78
2023/11/06 07:07:46;;;;;;;4.50;1.50;;;;;;;11.31;100.00;98713.94;109946;1265;23024;-83
2023/11/06 07:10:47;;;;;;;3.60;1.60;;;;;;;11.36;100.00;98718.55;110105;1265;21974;-80
2023/11/06 07:13:18;;;;;;;16.30;2.10;;;;;;;11.39;100.00;98721.09;110194;1265;22122;-79
2023/11/06 07:15:47;;;;;;;5.50;1.60;;;;;;;11.48;100.00;98730.39;109950;1265;23157;-82
2023/11/06 07:18:30;;;;;;;55.20;6.30;;;;;;;11.59;100.00;98732.78;110294;1265;21981;-80
2023/11/06 07:21:39;;;;;;;8.10;1.80;;;;;;;11.70;100.00;98743.77;109899;1266;24316;-81
2023/11/06 07:25:17;;;;;;;5.50;1.80;;;;;;;11.76;100.00;98753.26;109585;1272;22007;-81
2023/11/06 07:28:59;;;;;;;2.80;1.30;;;;;;;11.80;100.00;98765.38;109291;1275;22015;-81
2023/11/06 07:32:24;;;;;;;6.60;2.60;;;;;;;11.83;100.00;98769.72;108433;1285;22005;-81
2023/11/06 07:35:27;;;;;;;8.90;3.30;;;;;;;11.83;100.00;98776.16;108647;1285;21996;-81
2023/11/06 07:39:07;;;;;;;;;;;;;;;;;;;;;
2023/11/06 07:43:14;;;;;;;;;;;;;;;;;;;;;
2023/11/06 07:47:13;;;;;;;8.90;2.70;;;;;;;11.91;100.00;98789.95;107668;1297;22149;-82
2023/11/06 07:50:29;;;;;;;5.60;3.40;;;;;;;11.97;100.00;98793.50;107473;1297;22200;-81
2023/11/06 07:54:26;;;;;;;5.10;2.60;;;;;;;12.07;100.00;98800.66;107576;1297;23130;-80
2023/11/06 07:57:49;;;;;;;6.00;2.70;;;;;;;12.21;100.00;98805.33;107764;1297;23657;-82
2023/11/06 08:00:54;;;;;;;6.50;2.80;;;;;;;12.32;100.00;98811.52;107908;1294;22069;-81
2023/11/06 08:08:25;;;;;;;7.10;3.30;;;;;;;12.65;100.00;98822.31;107966;1287;22004;-80
2023/11/06 08:11:59;;;;;;;7.00;2.90;;;;;;;13.01;100.00;98828.30;107984;1293;22155;-80
2023/11/06 08:14:45;;;;;;;8.10;3.00;;;;;;;13.46;100.00;98831.69;107760;1297;23099;-84
2023/11/06 08:17:16;;;;;;;5.10;2.50;;;;;;;13.79;100.00;98833.29;107646;1297;22033;-78
2023/11/06 08:20:00;;;;;;;4.70;3.10;;;;;;;14.04;100.00;98839.39;108008;1290;22014;-79
2023/11/06 08:22:32;;;;;;;7.00;2.70;;;;;;;14.27;100.00;98840.65;108153;1289;23631;-80
2023/11/06 08:28:12;;;;;;;6.70;4.20;;;;;;;14.42;100.00;98844.44;107716;1297;22018;-79
2023/11/06 08:30:44;;;;;;;;;;;;;;;14.41;100.00;98853.41;108055;1292;21997;-80
2023/11/06 08:33:18;;;;;;;5.40;2.30;;;;;;;14.34;100.00;98856.23;108323;1287;22014;-82
2023/11/06 08:36:07;;;;;;;3.70;1.70;;;;;;;14.15;100.00;98860.81;108446;1287;22010;-81
2023/11/06 08:39:03;;;;;;;5.30;2.10;;;;;;;13.97;100.00;98866.88;108535;1286;22037;-81
2023/11/06 08:41:53;;;;;;;4.90;2.70;;;;;;;13.83;100.00;98875.80;108523;1286;21974;-81
2023/11/06 08:45:23;;;;;;;5.50;3.20;;;;;;;13.71;100.00;98888.08;108631;1283;22005;-81
2023/11/06 08:48:40;;;;;;;6.20;2.70;;;;;;;13.53;100.00;98891.13;108617;1286;21985;-81
2023/11/06 08:51:40;;;;;;;5.60;2.10;;;;;;;13.40;100.00;98892.63;108665;1281;22749;-81
2023/11/06 08:54:34;;;;;;;4.60;2.00;;;;;;;13.29;100.00;98901.79;108835;1281;22391;-80
2023/11/06 08:57:24;;;;;;;3.50;1.90;;;;;;;13.30;100.00;98905.61;108737;1281;23734;-80
2023/11/06 09:00:14;;;;;;;6.40;2.00;;;;;;;13.47;100.00;98910.79;108761;1281;23622;-81
2023/11/06 09:03:19;;;;;;;4.50;1.90;;;;;;;13.52;100.00;98913.56;108429;1287;22004;-81
2023/11/06 09:05:58;;;;;;;4.00;2.00;;;;;;;13.52;100.00;98916.57;108843;1280;23602;-83
2023/11/06 09:08:59;;;;;;;3.50;2.10;;;;;;;13.50;100.00;98921.39;108853;1280;22009;-81
2023/11/06 09:12:09;;;;;;;5.80;2.80;;;;;;;13.48;100.00;98931.34;108669;1281;21994;-82
2023/11/06 09:14:51;;;;;;;5.50;2.10;;;;;;;13.34;100.00;98919.60;108111;1286;22456;-81
2023/11/06 09:17:53;;;;;;;5.10;1.90;;;;;;;13.38;100.00;98937.96;108381;1290;22030;-85
2023/11/06 09:20:58;;;;;;;;;;;;;;;;;;;;;
2023/11/06 09:23:44;;;;;;;2.80;1.50;;;;;;;13.27;100.00;98949.28;108471;1287;23059;-79
2023/11/06 09:26:13;;;;;;;6.10;1.80;;;;;;;13.25;100.00;98953.52;108576;1287;22003;-82
2023/11/06 09:28:40;;;;;;;5.80;3.00;;;;;;;13.27;100.00;98962.53;108449;1284;22002;-82
2023/11/06 09:31:08;;;;;;;4.00;2.80;;;;;;;13.28;100.00;98965.60;108553;1284;22207;-81
2023/11/06 09:33:36;;;;;;;6.80;4.00;;;;;;;13.31;100.00;98968.38;108997;1279;22001;-82
2023/11/06 09:36:08;;;;;;;6.90;3.80;;;;;;;13.33;100.00;98971.73;109043;1279;22040;-81
2023/11/06 09:38:36;;;;;;;;;;;;;;;13.36;100.00;98976.08;108901;1279;21977;-80
2023/11/06 09:41:04;;;;;;;6.10;2.40;;;;;;;13.28;100.00;98974.85;108825;1279;22720;-81
2023/11/06 09:43:32;;;;;;;6.30;2.70;;;;;;;13.25;100.00;98978.16;108841;1279;22003;-79
2023/11/06 09:46:05;;;;;;;5.70;3.10;;;;;;;13.28;100.00;98979.42;108911;1279;21988;-81
2023/11/06 09:48:37;;;;;;;4.80;2.30;;;;;;;13.30;100.00;98982.21;108835;1279;23247;-82
2023/11/06 09:51:15;;;;;;;5.20;3.20;;;;;;;13.30;100.00;98986.09;108980;1274;22014;-82
2023/11/06 09:53:46;;;;;;;4.90;2.90;;;;;;;13.28;100.00;98987.23;109572;1271;22766;-81
2023/11/06 09:56:15;;;;;;;6.20;2.50;;;;;;;13.29;100.00;98988.05;109825;1270;23228;-81
2023/11/06 09:58:43;;;;;;;9.50;3.40;;;;;;;13.29;100.00;98991.55;109738;1270;22000;-81
2023/11/06 10:01:14;;;;;;;9.10;2.90;;;;;;;13.31;100.00;98991.93;109871;1270;21988;-82
2023/11/06 10:03:50;;;;;;;4.10;3.10;;;;;;;13.33;100.00;98990.57;109876;1270;21975;-80
2023/11/06 10:06:31;;;;;;;7.90;3.10;;;;;;;13.35;100.00;98995.39;109734;1270;22243;-82
2023/11/06 10:09:47;;;;;;;5.20;2.70;;;;;;;13.34;100.00;98997.35;109825;1270;22824;-81
2023/11/06 10:12:35;;;;;;;5.40;2.90;;;;;;;13.37;100.00;99000.83;109708;1270;23070;-82
2023/11/06 10:15:38;;;;;;;5.00;2.50;;;;;;;13.39;100.00;99005.21;109745;1270;22016;-83
2023/11/06 10:18:29;;;;;;;3.30;1.80;;;;;;;13.42;100.00;99010.23;109638;1270;21978;-82
2023/11/06 10:21:34;;;;;;;4.40;2.70;;;;;;;13.41;100.00;99010.32;109669;1270;22026;-81
2023/11/06 10:24:16;;;;;;;7.50;2.60;;;;;;;13.41;100.00;99008.52;109210;1275;23738;-84
2023/11/06 10:26:49;;;;;;;5.60;2.30;;;;;;;13.42;100.00;99010.73;109247;1275;21971;-82
2023/11/06 10:29:21;;;;;;;6.10;2.90;;;;;;;13.42;100.00;99013.58;109402;1274;21958;-82
2023/11/06 10:31:54;;;;;;;6.40;2.80;;;;;;;13.41;100.00;99013.96;109388;1275;22018;-83
2023/11/06 10:34:28;;;;;;;4.30;2.70;;;;;;;13.43;100.00;99017.16;109330;1275;22819;-82
2023/11/06 10:37:18;;;;;;;10.90;3.90;;;;;;;13.43;100.00;99016.07;109380;1275;23039;-85
2023/11/06 10:39:59;;;;;;;6.40;3.00;;;;;;;13.44;100.00;99018.60;109294;1275;22449;-81
2023/11/06 10:42:29;;;;;;;3.80;2.70;;;;;;;13.47;100.00;99021.05;109811;1270;21977;-82
2023/11/06 10:44:59;;;;;;;6.80;2.90;;;;;;;13.52;100.00;99016.69;109813;1270;21989;-80
2023/11/06 10:47:33;;;;;;;4.20;2.60;;;;;;;13.54;100.00;99021.66;109208;1277;23778;-80
2023/11/06 10:50:13;;;;;;;8.30;2.90;;;;;;;13.54;100.00;99021.08;109400;1272;21965;-80
2023/11/06 10:52:59;;;;;;;9.30;5.40;;;;;;;13.56;100.00;99019.90;109178;1277;22009;-82
2023/11/06 10:55:51;;;;;;;7.70;3.80;;;;;;;13.57;100.00;99018.81;109302;1277;23620;-82
2023/11/06 10:58:36;;;;;;;7.30;3.90;;;;;;;13.57;100.00;99022.48;108914;1273;23116;-82
2023/11/06 11:01:10;;;;;;;6.60;3.60;;;;;;;13.59;100.00;99030.38;108766;1283;22000;-82
2023/11/06 11:03:46;;;;;;;6.40;3.60;;;;;;;13.56;100.00;99019.56;108659;1280;21991;-81
2023/11/06 11:06:18;;;;;;;7.10;3.40;;;;;;;13.68;100.00;99035.47;108976;1277;23644;-82
2023/11/06 11:09:19;;;;;;;10.60;5.00;;;;;;;13.70;100.00;99036.05;108723;1282;22467;-80
2023/11/06 11:12:05;;;;;;;9.40;3.90;;;;;;;13.67;100.00;99037.51;108677;1282;22002;-81
2023/11/06 11:14:38;;;;;;;6.00;2.80;;;;;;;13.71;100.00;99050.29;108708;1283;22002;-82
2023/11/06 11:17:43;;;;;;;8.10;4.10;;;;;;;13.69;100.00;99054.98;108820;1279;23647;-83
2023/11/06 11:21:09;;;;;;;5.20;3.10;;;;;;;13.62;100.00;99055.10;108658;1282;23883;-82
2023/11/06 11:24:58;;;;;;;5.30;2.80;;;;;;;13.55;100.00;99057.03;108761;1282;22008;-83
2023/11/06 11:27:41;;;;;;;5.70;2.60;;;;;;;13.51;100.00;99059.91;108873;1280;22000;-80
2023/11/06 11:31:15;;;;;;;2.90;1.80;;;;;;;13.49;100.00;99060.75;108519;1286;22002;-82
2023/11/06 11:34:39;;;;;;;6.70;3.00;;;;;;;13.47;100.00;99061.10;108608;1285;22157;-82
2023/11/06 11:37:44;;;;;;;4.10;3.00;;;;;;;13.54;100.00;99066.32;108487;1279;22001;-80
2023/11/06 11:41:26;;;;;;;6.50;3.10;;;;;;;13.65;100.00;99065.56;108583;1285;22494;-82
2023/11/06 11:45:21;;;;;;;4.80;2.10;;;;;;;13.67;100.00;99053.17;108137;1292;22007;-82
2023/11/06 11:49:09;;;;;;;5.60;3.10;;;;;;;13.82;100.00;99072.59;108502;1284;21988;-85
2023/11/06 11:53:17;;;;;;;;;;;;;;;;;;;;;
2023/11/06 11:57:25;;;;;;;8.50;2.70;;;;;;;13.93;100.00;99078.83;108971;1283;22003;-82
2023/11/06 12:05:46;;;;;;;5.40;2.60;;;;;;;14.09;100.00;99088.48;107160;1300;23749;-79
2023/11/06 12:08:41;;;;;;;;;;;;;;;;;;;;;
2023/11/06 12:11:29;;;;;;;9.10;3.50;;;;;;;14.26;100.00;99092.14;107330;1298;22011;-81
2023/11/06 12:14:30;;;;;;;6.60;3.80;;;;;;;14.29;100.00;99096.48;107134;1298;22012;-77
2023/11/06 12:17:23;;;;;;;8.30;3.00;;;;;;;14.31;100.00;99099.48;107087;1298;22028;-76
2023/11/06 12:20:09;;;;;;;8.70;4.40;;;;;;;14.32;100.00;99103.26;107100;1292;22013;-78
2023/11/06 12:22:54;;;;;;;7.40;3.90;;;;;;;14.37;100.00;99101.72;107666;1292;22011;-77
2023/11/06 12:25:40;;;;;;;6.60;4.00;;;;;;;14.43;100.00;99104.74;107693;1289;24345;-81
2023/11/06 12:28:32;;;;;;;7.90;4.10;;;;;;;14.43;100.00;99097.05;107672;1292;23070;-79
2023/11/06 12:31:43;;;;;;;6.90;2.90;;;;;;;14.45;100.00;99097.13;107802;1292;23084;-79
2023/11/06 12:34:21;;;;;;;7.00;3.60;;;;;;;14.47;100.00;99107.08;108354;1288;22006;-79
2023/11/06 12:37:15;;;;;;;6.10;3.70;;;;;;;14.41;100.00;99110.11;108264;1283;23060;-80
2023/11/06 12:39:55;;;;;;;12.50;5.60;;;;;;;14.38;100.00;99117.73;108679;1266;21987;-77
2023/11/06 12:42:50;;;;;;;;;;;;;;;14.33;100.00;99124.41;109387;1272;22164;-79
2023/11/06 12:45:43;;;;;;;7.80;2.70;;;;;;;14.19;100.00;99132.42;108915;1274;21990;-81
2023/11/06 12:48:41;;;;;;;3.70;2.20;;;;;;;14.09;100.00;99138.52;109126;1277;22003;-79
2023/11/06 12:51:32;;;;;;;5.50;2.50;;;;;;;14.02;100.00;99141.48;109046;1278;22002;-78
2023/11/06 12:54:22;;;;;;;10.50;2.70;;;;;;;13.99;100.00;99145.35;108906;1278;22000;-81
2023/11/06 12:57:06;;;;;;;5.00;2.00;;;;;;;14.01;100.00;99152.21;108827;1277;21995;-82
2023/11/06 12:59:44;;;;;;;6.90;3.10;;;;;;;14.03;100.00;99156.99;108933;1280;21953;-79
2023/11/06 13:02:37;;;;;;;4.50;2.40;;;;;;;13.98;100.00;99170.41;108704;1276;22021;-76
2023/11/06 13:05:46;;;;;;;4.10;2.00;;;;;;;13.92;100.00;99185.20;109108;1275;22027;-78
2023/11/06 13:08:31;;;;;;;2.60;1.50;;;;;;;13.78;100.00;99187.77;109104;1275;23139;-79
2023/11/06 13:11:14;;;;;;;3.30;1.90;;;;;;;13.60;100.00;99191.61;108744;1270;23738;-76
2023/11/06 13:14:43;;;;;;;3.20;1.80;;;;;;;13.43;100.00;99202.26;108658;1278;21983;-84
2023/11/06 13:17:32;;;;;;;5.10;2.20;;;;;;;13.23;100.00;99212.45;108816;1276;23715;-79
2023/11/06 13:21:18;;;;;;;5.30;2.10;;;;;;;13.06;100.00;99220.52;109122;1273;21989;-79
2023/11/06 13:23:19;;;;;;;4.90;2.60;;;;;;;12.86;100.00;99221.69;108702;1280;21993;-79
2023/11/06 13:26:00;;;;;;;5.10;2.80;;;;;;;12.70;100.00;99227.75;108884;1280;21964;-79
2023/11/06 13:28:32;;;;;;;5.20;3.10;;;;;;;12.53;100.00;99232.00;108909;1276;23217;-80
2023/11/06 13:31:27;;;;;;;6.40;3.10;;;;;;;12.36;100.00;99227.81;108841;1279;22129;-81
2023/11/06 13:34:14;;;;;;;7.90;4.50;;;;;;;12.17;100.00;99241.88;109154;1279;23649;-81
2023/11/06 13:36:58;;;;;;;3.90;2.70;;;;;;;11.99;100.00;99261.14;108644;1279;22006;-79
2023/11/06 13:39:41;;;;;;;5.50;3.30;;;;;;;11.85;100.00;99269.34;109172;1279;21995;-80
2023/11/06 13:42:26;;;;;;;4.10;1.80;;;;;;;11.68;100.00;99272.77;109181;1276;22002;-83